Time;durP1;ratioP1;P1;durP2;ratioP2;P2;SDS_P1;SDS_P2;PMS_P1;PMS_P2;Temp;Humidity;BMP_temperature;BMP_pressure;BME280_temperature;BME280_humidity;BME280_pressure;Samples;Min_cycle;Max_cycle;Signal;HPM_P1;HPM_P2
2021/07/23 00:00:20;;;;;;;14.82;7.88;;;;;;;20.20;61.43;101552.09;4921428;28;120996;-75
2021/07/23 00:02:46;;;;;;;12.52;7.18;;;;;;;20.26;61.66;101554.16;4909979;28;120124;-76
2021/07/23 00:05:12;;;;;;;12.35;7.32;;;;;;;20.26;61.69;101554.91;4907769;28;122778;-75
2021/07/23 00:07:37;;;;;;;14.75;7.13;;;;;;;20.29;61.32;101564.28;4923435;28;120977;-76
2021/07/23 00:10:04;;;;;;;14.02;6.93;;;;;;;20.28;61.05;101562.78;4912623;28;120540;-76
2021/07/23 00:12:29;;;;;;;13.00;6.90;;;;;;;20.28;61.28;101559.97;4927240;28;120945;-75
2021/07/23 00:14:55;;;;;;;14.05;7.07;;;;;;;20.26;61.18;101554.16;4923549;28;119999;-75
2021/07/23 00:17:21;;;;;;;13.77;7.25;;;;;;;20.25;61.78;101553.38;4890582;28;119609;-76
2021/07/23 00:19:47;;;;;;;12.07;6.78;;;;;;;20.28;61.74;101563.53;4927174;28;119692;-76
2021/07/23 00:22:13;;;;;;;11.15;6.50;;;;;;;20.29;61.22;101553.91;4909033;28;120785;-75
2021/07/23 00:24:40;;;;;;;13.30;7.30;;;;;;;20.28;61.47;101557.97;4907285;28;121782;-75
2021/07/23 00:27:05;;;;;;;13.07;6.88;;;;;;;20.29;61.07;101550.38;4919909;28;119973;-75
2021/07/23 00:29:34;;;;;;;15.73;6.85;;;;;;;20.26;61.31;101551.38;4941432;28;119616;-75
2021/07/23 00:32:00;;;;;;;13.27;6.65;;;;;;;20.29;61.83;101558.72;4912416;28;120027;-76
2021/07/23 00:34:26;;;;;;;13.15;6.40;;;;;;;20.27;61.40;101550.09;4908397;28;120764;-76
2021/07/23 00:36:53;;;;;;;13.55;6.10;;;;;;;20.27;61.59;101553.66;4905609;28;120331;-75
2021/07/23 00:39:20;;;;;;;11.60;5.82;;;;;;;20.22;61.64;101544.00;4909023;28;120122;-76
2021/07/23 00:41:45;;;;;;;12.15;6.22;;;;;;;20.29;61.61;101547.59;4909883;28;119922;-75
2021/07/23 00:44:12;;;;;;;10.80;6.40;;;;;;;20.31;61.80;101556.97;4909588;28;120332;-75
2021/07/23 00:46:43;;;;;;;12.93;6.22;;;;;;;20.31;61.44;101554.19;4904620;28;119596;-76
2021/07/23 00:49:09;;;;;;;12.00;6.00;;;;;;;20.31;61.83;101554.19;4906975;28;119646;-75
2021/07/23 00:51:40;;;;;;;11.30;5.57;;;;;;;20.31;61.28;101553.41;4908008;28;119709;-75
2021/07/23 00:54:12;;;;;;;11.82;5.35;;;;;;;20.26;61.02;101551.38;4911010;28;119460;-75
2021/07/23 00:56:40;;;;;;;11.43;5.03;;;;;;;20.26;61.33;101543.75;4909196;28;120646;-75
2021/07/23 00:59:09;;;;;;;10.70;4.70;;;;;;;20.23;61.35;101539.19;4924684;28;119784;-75
2021/07/23 01:01:37;;;;;;;7.90;4.00;;;;;;;20.24;60.64;101544.25;4902806;28;122138;-75
2021/07/23 01:04:04;;;;;;;8.82;5.18;;;;;;;20.24;61.07;101554.66;4908177;28;121404;-75
2021/07/23 01:06:33;;;;;;;11.32;4.95;;;;;;;20.24;61.38;101546.28;4903920;28;120551;-75
2021/07/23 01:09:00;;;;;;;7.20;4.30;;;;;;;20.22;61.45;101546.78;4909391;28;121874;-75
2021/07/23 01:11:26;;;;;;;9.38;4.65;;;;;;;20.20;61.40;101540.94;4905573;28;120896;-75
2021/07/23 01:14:06;;;;;;;9.68;4.80;;;;;;;20.24;61.23;101552.63;4908591;28;119655;-75
2021/07/23 01:16:33;;;;;;;11.13;4.53;;;;;;;20.20;61.28;101542.97;4925363;28;120122;-79
2021/07/23 01:19:00;;;;;;;8.40;4.60;;;;;;;20.17;61.00;101539.16;4907088;28;120120;-76
2021/07/23 01:21:29;;;;;;;11.15;4.22;;;;;;;20.18;61.23;101553.84;4924386;28;120013;-75
2021/07/23 01:23:56;;;;;;;10.68;4.45;;;;;;;20.15;61.32;101547.25;4923818;28;120818;-75
2021/07/23 01:26:41;;;;;;;10.52;4.45;;;;;;;20.13;61.41;101544.22;4924745;28;120749;-75
2021/07/23 01:29:10;;;;;;;9.95;4.47;;;;;;;20.15;61.27;101549.28;4921550;28;121632;-75
2021/07/23 01:31:37;;;;;;;8.75;4.22;;;;;;;20.15;61.58;101541.69;4892569;28;119922;-75
2021/07/23 01:34:04;;;;;;;6.65;3.80;;;;;;;20.17;61.76;101541.19;4903819;28;119754;-75
2021/07/23 01:36:30;;;;;;;10.52;4.60;;;;;;;20.18;61.74;101542.72;4890384;28;119779;-75
2021/07/23 01:38:57;;;;;;;6.97;4.13;;;;;;;20.19;61.57;101539.44;4909898;28;120383;-75
2021/07/23 01:41:24;;;;;;;9.73;4.13;;;;;;;20.19;61.54;101539.44;4891240;28;121261;-75
2021/07/23 01:43:53;;;;;;;6.82;4.15;;;;;;;20.16;62.09;101534.84;4908554;28;119518;-76
2021/07/23 01:46:19;;;;;;;9.10;4.22;;;;;;;20.21;61.62;101542.47;4890110;28;119781;-76
2021/07/23 01:49:08;;;;;;;9.18;4.35;;;;;;;20.20;61.45;101532.59;4925380;28;119751;-76
2021/07/23 01:51:37;;;;;;;10.30;4.20;;;;;;;20.20;61.40;101535.38;4921456;28;122522;-75
2021/07/23 01:54:08;;;;;;;11.18;4.47;;;;;;;20.20;61.51;101535.38;4907725;28;119705;-77
2021/07/23 01:56:37;;;;;;;9.20;3.85;;;;;;;20.21;61.59;101536.91;4905006;28;120049;-75
2021/07/23 01:59:10;;;;;;;13.20;4.28;;;;;;;20.22;61.65;101537.66;4920969;28;120130;-75
2021/07/23 02:01:40;;;;;;;10.18;4.57;;;;;;;20.21;61.51;101534.13;4895055;28;120455;-75
2021/07/23 02:04:24;;;;;;;7.43;4.33;;;;;;;20.21;61.37;101536.16;4893801;28;120533;-75
2021/07/23 02:06:51;;;;;;;7.53;4.07;;;;;;;19.99;61.38;101497.00;4907051;28;119693;-75
2021/07/23 02:09:24;;;;;;;9.93;4.72;;;;;;;20.22;61.57;101538.44;4907057;28;120422;-75
2021/07/23 02:11:56;;;;;;;7.95;4.53;;;;;;;20.20;60.99;101526.25;4924616;28;121774;-75
2021/07/23 02:14:33;;;;;;;10.98;4.53;;;;;;;20.22;61.43;101520.97;4917328;28;120623;-75
2021/07/23 02:17:00;;;;;;;10.82;4.60;;;;;;;20.21;61.48;101533.34;4921983;28;119607;-75
2021/07/23 02:19:27;;;;;;;9.10;4.55;;;;;;;20.12;61.39;101522.44;4907460;28;119955;-75
2021/07/23 02:22:04;;;;;;;9.05;4.40;;;;;;;20.19;61.50;101533.09;4895205;28;121048;-76
2021/07/23 02:24:30;;;;;;;8.73;4.90;;;;;;;20.20;61.63;101534.63;4921336;28;120574;-76
2021/07/23 02:26:56;;;;;;;9.90;4.60;;;;;;;20.20;61.19;101529.81;4908530;28;120068;-76
2021/07/23 02:29:23;;;;;;;7.88;4.40;;;;;;;20.20;61.21;101532.59;4905478;28;119893;-76
2021/07/23 02:31:48;;;;;;;8.73;4.90;;;;;;;20.19;61.02;101533.84;4903723;28;121294;-75
2021/07/23 02:34:22;;;;;;;9.68;4.70;;;;;;;20.19;61.14;101530.31;4927091;28;119587;-76
2021/07/23 02:36:50;;;;;;;8.63;4.70;;;;;;;20.10;61.13;101517.31;4912061;28;119805;-76
2021/07/23 02:39:24;;;;;;;13.43;5.13;;;;;;;20.13;61.23;101513.56;4926832;28;120215;-75
2021/07/23 02:41:55;;;;;;;7.38;4.88;;;;;;;20.18;61.33;101529.53;4925579;28;120324;-75
2021/07/23 02:44:21;;;;;;;8.95;4.75;;;;;;;20.17;61.12;101522.44;4913312;28;119778;-75
2021/07/23 02:46:49;;;;;;;11.57;5.22;;;;;;;20.14;60.69;101517.88;4927767;28;120500;-75
2021/07/23 02:49:18;;;;;;;11.10;4.97;;;;;;;20.16;60.80;101515.34;4928752;28;120076;-75
2021/07/23 02:51:49;;;;;;;11.55;5.03;;;;;;;20.16;60.97;101507.00;4909537;28;121692;-75
2021/07/23 02:54:14;;;;;;;10.43;5.65;;;;;;;20.15;61.02;101505.47;4927433;28;120345;-76
2021/07/23 02:56:40;;;;;;;8.65;4.93;;;;;;;20.11;61.34;101496.59;4910352;28;119851;-75
2021/07/23 02:59:06;;;;;;;11.30;5.05;;;;;;;20.15;61.27;101513.84;4895311;28;121687;-77
2021/07/23 03:01:33;;;;;;;9.30;4.82;;;;;;;20.14;61.22;101506.75;4914522;28;120054;-76
2021/07/23 03:04:02;;;;;;;10.75;5.07;;;;;;;20.16;61.34;101511.81;4926394;28;119987;-75
2021/07/23 03:06:37;;;;;;;8.35;5.10;;;;;;;20.12;61.15;101498.13;4924568;28;120535;-77
2021/07/23 03:09:03;;;;;;;9.52;4.95;;;;;;;20.18;61.27;101514.84;4923159;28;119893;-75
2021/07/23 03:11:29;;;;;;;11.38;5.40;;;;;;;20.12;60.87;101498.13;4893227;28;119963;-75
2021/07/23 03:14:05;;;;;;;12.27;5.55;;;;;;;20.16;61.23;101504.22;4907892;28;119757;-75
2021/07/23 03:16:38;;;;;;;10.20;4.97;;;;;;;20.14;61.26;101497.63;4909507;28;119777;-76
2021/07/23 03:19:04;;;;;;;9.88;5.40;;;;;;;20.13;61.04;101498.88;4910113;28;122069;-75
2021/07/23 03:21:31;;;;;;;9.77;5.32;;;;;;;20.16;60.95;101497.88;4890482;28;119844;-75
2021/07/23 03:23:57;;;;;;;10.82;5.20;;;;;;;20.15;60.94;101499.91;4925230;28;120066;-75
2021/07/23 03:26:23;;;;;;;10.15;5.65;;;;;;;20.14;60.92;101498.38;4925033;28;122423;-76
2021/07/23 03:28:51;;;;;;;11.82;5.55;;;;;;;20.14;60.61;101490.03;4912094;28;119841;-76
2021/07/23 03:31:19;;;;;;;9.50;5.35;;;;;;;20.13;61.17;101488.50;4928318;28;120419;-75
2021/07/23 03:33:53;;;;;;;8.93;5.18;;;;;;;20.16;60.96;101501.44;4928231;28;120078;-76
2021/07/23 03:36:42;;;;;;;11.50;5.22;;;;;;;20.13;61.20;101487.75;4924378;28;119635;-75
2021/07/23 03:39:12;;;;;;;8.43;4.97;;;;;;;20.16;60.88;101489.53;4894465;28;120629;-76
2021/07/23 03:41:42;;;;;;;8.68;4.93;;;;;;;20.15;61.14;101485.97;4924088;28;119851;-76
2021/07/23 03:44:19;;;;;;;9.48;5.13;;;;;;;20.15;61.23;101483.19;4937621;28;120304;-76
2021/07/23 03:46:46;;;;;;;13.73;5.45;;;;;;;20.11;60.93;101485.44;4907283;28;120459;-76
2021/07/23 03:49:12;;;;;;;8.50;5.05;;;;;;;20.15;61.32;101483.19;4911049;28;119689;-76
2021/07/23 03:51:45;;;;;;;8.57;4.72;;;;;;;20.11;61.35;101485.44;4928521;28;120720;-75
2021/07/23 03:54:13;;;;;;;9.30;5.00;;;;;;;20.16;61.03;101489.53;4923558;28;123054;-75
2021/07/23 03:56:39;;;;;;;8.65;4.93;;;;;;;20.16;61.03;101489.53;4892754;28;120098;-75
2021/07/23 03:59:08;;;;;;;8.00;5.10;;;;;;;20.05;60.82;101469.94;4925462;28;119630;-76
2021/07/23 04:01:54;;;;;;;9.40;4.90;;;;;;;20.13;60.60;101485.72;4924966;28;119994;-75
2021/07/23 04:04:21;;;;;;;10.23;5.18;;;;;;;20.15;60.60;101488.75;4893291;28;121436;-75
2021/07/23 04:06:48;;;;;;;7.43;4.55;;;;;;;20.15;60.63;101494.34;4927861;28;119743;-75
2021/07/23 04:09:15;;;;;;;8.98;4.40;;;;;;;20.15;60.69;101485.97;4925794;28;121487;-76
2021/07/23 04:11:50;;;;;;;8.00;4.53;;;;;;;20.15;60.79;101488.75;4897717;28;120413;-76
2021/07/23 04:14:21;;;;;;;8.20;4.63;;;;;;;20.16;60.78;101495.09;4899328;28;120928;-75
2021/07/23 04:16:48;;;;;;;6.05;4.60;;;;;;;20.16;60.68;101503.44;4910507;28;121052;-75
2021/07/23 04:19:15;;;;;;;8.95;4.53;;;;;;;20.16;60.66;101490.28;4904369;28;120466;-76
2021/07/23 04:21:48;;;;;;;8.30;4.50;;;;;;;20.16;60.93;101498.66;4910511;28;121317;-76
2021/07/23 04:24:29;;;;;;;8.88;4.28;;;;;;;20.12;60.68;101497.34;4921170;28;120442;-76
2021/07/23 04:26:58;;;;;;;7.20;4.30;;;;;;;20.13;60.36;101496.84;4925138;28;120248;-75
2021/07/23 04:29:25;;;;;;;7.85;4.80;;;;;;;20.15;60.68;101494.34;4908382;28;120623;-76
2021/07/23 04:31:53;;;;;;;9.25;4.35;;;;;;;20.15;60.55;101494.34;4908961;28;121680;-75
2021/07/23 04:34:19;;;;;;;8.40;4.50;;;;;;;20.16;60.57;101495.84;4928024;28;119744;-75
2021/07/23 04:37:04;;;;;;;6.70;4.15;;;;;;;20.15;60.58;101488.75;4922237;28;120583;-75
2021/07/23 04:39:38;;;;;;;8.77;4.30;;;;;;;20.17;60.76;101493.84;4909431;28;121371;-75
2021/07/23 04:42:08;;;;;;;6.15;3.63;;;;;;;20.14;60.77;101487.25;4909229;28;120035;-76
2021/07/23 04:44:34;;;;;;;7.32;3.63;;;;;;;20.13;60.52;101480.16;4909843;28;119653;-75
2021/07/23 04:47:02;;;;;;;6.28;3.33;;;;;;;20.20;60.45;101498.41;4922394;28;120268;-75
2021/07/23 04:49:30;;;;;;;8.02;3.83;;;;;;;20.21;60.58;101497.91;4921097;28;119835;-76
2021/07/23 04:51:58;;;;;;;10.43;4.30;;;;;;;20.22;60.20;101493.09;4908716;28;120086;-76
2021/07/23 04:54:44;;;;;;;;;;;;;;;20.19;60.43;101494.09;4927135;28;120182;-75
2021/07/23 04:57:47;;;;;;;5.70;3.55;;;;;;;20.19;60.38;101496.88;4920790;28;119936;-75
2021/07/23 05:00:17;;;;;;;8.40;3.55;;;;;;;20.19;60.27;101505.25;4909111;28;121853;-75
2021/07/23 05:02:43;;;;;;;8.00;4.03;;;;;;;20.14;60.31;101492.81;4923963;28;119772;-76
2021/07/23 05:05:13;;;;;;;7.43;3.88;;;;;;;20.18;59.76;101495.34;4925088;28;119953;-76
2021/07/23 05:07:41;;;;;;;9.20;3.67;;;;;;;20.21;59.93;101497.91;4925004;28;121525;-75
2021/07/23 05:10:08;;;;;;;9.63;3.83;;;;;;;20.18;60.55;101493.34;4909724;28;120145;-76
2021/07/23 05:12:38;;;;;;;6.03;3.58;;;;;;;20.24;60.08;101490.56;4909622;28;119973;-76
2021/07/23 05:15:06;;;;;;;6.70;3.67;;;;;;;20.21;59.87;101497.91;4911264;28;121752;-76
2021/07/23 05:17:33;;;;;;;6.13;3.65;;;;;;;20.26;59.47;101504.00;4885482;28;125404;-75
2021/07/23 05:20:00;;;;;;;7.80;3.53;;;;;;;20.26;59.61;101501.22;4926832;28;119904;-75
2021/07/23 05:22:26;;;;;;;7.20;3.10;;;;;;;20.24;59.68;101496.91;4907539;28;120066;-76
2021/07/23 05:24:53;;;;;;;6.40;3.22;;;;;;;20.27;59.81;101505.53;4924537;28;119981;-75
2021/07/23 05:27:18;;;;;;;5.75;3.25;;;;;;;20.26;59.61;101501.22;4924266;28;120111;-75
2021/07/23 05:29:44;;;;;;;6.07;3.00;;;;;;;20.23;60.01;101494.63;4926730;28;120065;-75
2021/07/23 05:32:10;;;;;;;5.90;2.80;;;;;;;20.28;59.34;101501.47;4908407;28;123183;-77
2021/07/23 05:34:35;;;;;;;3.40;2.25;;;;;;;20.28;59.56;101505.03;4922520;28;119902;-76
2021/07/23 05:37:01;;;;;;;4.55;3.05;;;;;;;20.29;59.01;101514.16;4929355;28;120549;-76
2021/07/23 05:39:27;;;;;;;5.28;2.70;;;;;;;20.30;59.12;101515.66;4908284;28;119647;-75
2021/07/23 05:41:53;;;;;;;5.45;2.40;;;;;;;20.27;58.81;101505.53;4928736;28;119803;-75
2021/07/23 05:44:18;;;;;;;4.80;2.72;;;;;;;20.29;59.60;101506.56;4907752;28;120024;-75
2021/07/23 05:46:48;;;;;;;5.90;2.53;;;;;;;20.33;59.53;101506.31;4905116;28;120146;-75
2021/07/23 05:49:14;;;;;;;4.40;2.40;;;;;;;20.33;59.29;101507.06;5004723;22;122500;-79
2021/07/23 05:51:39;;;;;;;5.25;2.97;;;;;;;20.36;59.38;101508.13;4922063;28;120176;-78
2021/07/23 05:54:05;;;;;;;5.47;2.92;;;;;;;20.38;59.74;101511.19;4889672;28;122649;-79
2021/07/23 05:56:31;;;;;;;5.85;2.65;;;;;;;20.39;58.60;101512.69;4919871;28;120259;-81
2021/07/23 05:58:56;;;;;;;5.32;3.30;;;;;;;20.38;57.51;101511.19;4918776;28;119701;-79
2021/07/23 06:01:22;;;;;;;6.25;3.63;;;;;;;20.35;58.22;101501.78;4905241;28;124655;-80
2021/07/23 06:03:47;;;;;;;6.05;3.92;;;;;;;20.36;58.04;101502.56;4921405;28;120057;-79
2021/07/23 06:06:13;;;;;;;6.88;4.05;;;;;;;20.37;58.04;101502.06;4925861;28;121821;-79
2021/07/23 06:08:39;;;;;;;6.68;3.40;;;;;;;20.37;57.72;101496.47;4926061;28;120350;-80
2021/07/23 06:11:06;;;;;;;7.57;3.65;;;;;;;20.37;57.03;101493.69;4925689;28;121028;-78
2021/07/23 06:13:43;;;;;;;8.07;3.88;;;;;;;20.27;57.44;101491.59;4922020;28;120252;-80
2021/07/23 06:16:11;;;;;;;8.40;4.50;;;;;;;20.34;58.00;101491.13;4925951;28;120130;-79
2021/07/23 06:18:37;;;;;;;10.45;4.10;;;;;;;20.36;56.62;101492.16;4918567;28;120949;-80
2021/07/23 06:21:06;;;;;;;8.70;4.22;;;;;;;20.36;56.58;101496.97;4915262;28;119598;-79
2021/07/23 06:23:31;;;;;;;6.22;4.30;;;;;;;20.33;56.60;101503.53;4927937;28;120125;-78
2021/07/23 06:26:01;;;;;;;7.32;4.07;;;;;;;20.32;57.20;101502.75;4925052;28;119791;-79
2021/07/23 06:28:27;;;;;;;6.70;3.85;;;;;;;20.33;56.93;101509.09;4928231;28;120802;-78
2021/07/23 06:30:59;;;;;;;7.65;4.47;;;;;;;20.35;57.14;101510.16;4920218;28;120029;-79
2021/07/23 06:33:24;;;;;;;7.28;3.85;;;;;;;20.37;56.86;101515.22;4902655;28;120479;-80
2021/07/23 06:35:50;;;;;;;8.38;4.45;;;;;;;20.37;56.92;101518.78;4925360;28;120122;-79
2021/07/23 06:38:15;;;;;;;9.30;4.32;;;;;;;20.39;57.79;101515.50;4923153;28;120022;-81
2021/07/23 06:40:41;;;;;;;6.43;4.00;;;;;;;20.42;56.95;101512.50;4908667;28;119670;-79
2021/07/23 06:43:09;;;;;;;9.65;4.55;;;;;;;20.43;56.68;101513.25;4927963;28;119735;-81
2021/07/23 06:45:35;;;;;;;6.47;3.95;;;;;;;20.38;56.07;101514.72;4898588;28;120531;-80
2021/07/23 06:48:01;;;;;;;7.10;3.97;;;;;;;20.39;57.13;101519.03;4917883;28;125820;-80
2021/07/23 06:50:27;;;;;;;9.65;4.63;;;;;;;20.37;56.25;101510.41;4928491;28;120553;-80
2021/07/23 06:52:52;;;;;;;6.93;4.18;;;;;;;20.39;56.41;101515.50;4926928;28;120054;-78
2021/07/23 06:55:18;;;;;;;6.45;4.18;;;;;;;20.43;57.38;101510.47;4911044;28;119717;-78
2021/07/23 06:57:44;;;;;;;9.02;4.38;;;;;;;20.47;57.21;101503.38;4921636;28;120228;-78
2021/07/23 07:00:10;;;;;;;9.07;3.88;;;;;;;20.50;57.00;101512.78;4906988;28;121206;-80
2021/07/23 07:02:36;;;;;;;9.82;4.85;;;;;;;20.55;57.79;101514.81;4924977;28;119596;-78
2021/07/23 07:05:02;;;;;;;5.57;3.67;;;;;;;20.60;57.39;101513.34;4908234;28;121496;-79
2021/07/23 07:07:28;;;;;;;7.13;4.15;;;;;;;20.65;57.79;101515.38;4930113;28;119802;-78
2021/07/23 07:09:54;;;;;;;7.32;4.32;;;;;;;20.68;58.32;101509.56;4929712;28;121181;-80
2021/07/23 07:12:20;;;;;;;5.82;3.67;;;;;;;20.67;57.94;101505.25;4921885;28;120239;-80
2021/07/23 07:14:46;;;;;;;6.00;3.97;;;;;;;20.77;57.50;101517.69;4903545;28;119761;-80
2021/07/23 07:17:11;;;;;;;7.57;4.10;;;;;;;20.79;56.84;101517.94;4900654;28;122243;-78
2021/07/23 07:19:39;;;;;;;6.95;3.88;;;;;;;20.74;56.14;101510.34;4919567;28;122621;-78
2021/07/23 07:22:05;;;;;;;5.63;3.70;;;;;;;20.82;56.63;101528.13;4903420;28;120275;-78
2021/07/23 07:24:31;;;;;;;7.63;4.00;;;;;;;20.82;57.29;101524.56;4919134;28;120312;-78
2021/07/23 07:26:56;;;;;;;7.97;3.80;;;;;;;20.80;56.85;101518.72;4878253;28;122306;-79
2021/07/23 07:29:22;;;;;;;5.85;3.58;;;;;;;20.81;56.41;101523.78;4918806;28;121332;-79
2021/07/23 07:31:47;;;;;;;8.35;4.03;;;;;;;20.82;56.72;101521.78;4916893;28;119873;-79
2021/07/23 07:34:13;;;;;;;6.15;3.40;;;;;;;20.87;56.85;101528.66;4917183;28;121121;-79
2021/07/23 07:36:39;;;;;;;6.47;3.55;;;;;;;20.84;56.38;101525.59;4912554;28;120018;-79
2021/07/23 07:39:09;;;;;;;4.65;3.20;;;;;;;20.80;55.77;101513.91;4887419;28;121117;-78
2021/07/23 07:41:35;;;;;;;8.00;3.72;;;;;;;20.85;56.09;101526.34;4918629;28;120543;-78
2021/07/23 07:44:00;;;;;;;8.27;4.10;;;;;;;20.86;55.49;101532.69;4898378;28;121346;-78
2021/07/23 07:46:26;;;;;;;5.13;3.80;;;;;;;20.86;56.10;101527.88;4911370;28;121092;-80
2021/07/23 07:48:51;;;;;;;6.95;3.78;;;;;;;20.82;55.58;101519.00;4909498;28;119858;-78
2021/07/23 07:51:17;;;;;;;7.82;3.83;;;;;;;20.85;55.71;101520.78;4919321;28;120030;-80
2021/07/23 07:53:43;;;;;;;7.28;3.75;;;;;;;20.85;55.88;101520.78;4918381;28;120150;-80
2021/07/23 07:56:12;;;;;;;6.63;3.55;;;;;;;20.88;55.66;101516.97;4902227;28;120551;-79
2021/07/23 07:58:39;;;;;;;6.82;3.72;;;;;;;20.90;55.82;101513.69;4901535;28;122365;-79
2021/07/23 08:01:06;;;;;;;5.18;3.63;;;;;;;20.86;55.08;101516.72;4919675;28;121013;-78
2021/07/23 08:03:31;;;;;;;6.25;3.65;;;;;;;20.81;56.07;101517.44;4899130;28;121111;-80
2021/07/23 08:06:02;;;;;;;7.00;4.00;;;;;;;20.93;55.98;101523.84;4911145;28;120770;-77
2021/07/23 08:08:27;;;;;;;6.60;4.05;;;;;;;20.99;56.40;101530.19;4913642;28;119655;-77
2021/07/23 08:10:53;;;;;;;7.35;3.45;;;;;;;21.02;56.31;101520.81;4897569;28;119952;-83
2021/07/23 08:13:18;;;;;;;5.90;4.00;;;;;;;21.09;56.47;101521.09;4921469;28;120735;-80
2021/07/23 08:15:44;;;;;;;6.63;4.35;;;;;;;21.14;56.14;101520.34;4916869;28;119703;-82
2021/07/23 08:18:10;;;;;;;9.73;4.85;;;;;;;21.18;55.73;101524.91;4891495;28;120808;-78
2021/07/23 08:20:38;;;;;;;11.68;4.55;;;;;;;21.18;55.07;101522.13;4886886;28;120936;-78
2021/07/23 08:23:05;;;;;;;8.60;4.53;;;;;;;21.15;55.41;101509.94;4913088;28;121260;-78
2021/07/23 08:25:33;;;;;;;8.70;4.95;;;;;;;21.20;56.97;101523.13;4905404;28;120155;-80
2021/07/23 08:27:59;;;;;;;8.30;4.80;;;;;;;21.23;56.72;101513.75;4916153;28;120535;-79
2021/07/23 08:30:27;;;;;;;10.00;4.72;;;;;;;21.27;56.60;101510.75;4915300;28;120818;-79
2021/07/23 08:32:53;;;;;;;11.02;4.97;;;;;;;21.29;56.75;101519.38;4921817;28;122082;-78
2021/07/23 08:35:19;;;;;;;9.25;4.32;;;;;;;21.33;56.74;101525.50;4918583;28;119718;-79
2021/07/23 08:37:45;;;;;;;6.95;4.38;;;;;;;21.35;56.08;101518.13;4918833;28;119778;-81
2021/07/23 08:40:11;;;;;;;8.80;4.55;;;;;;;21.39;56.01;101520.66;4920317;28;120057;-78
2021/07/23 08:42:37;;;;;;;9.10;5.35;;;;;;;21.36;56.68;101522.44;4919112;28;120860;-77
2021/07/23 08:45:06;;;;;;;8.68;5.20;;;;;;;21.39;56.13;101517.88;4917147;28;121438;-77
2021/07/23 08:47:36;;;;;;;9.45;5.13;;;;;;;21.41;56.45;101515.34;4894380;28;121216;-83
2021/07/23 08:50:04;;;;;;;10.20;5.22;;;;;;;21.41;56.14;101516.09;4915376;28;120006;-79
2021/07/23 08:52:45;;;;;;;7.10;5.05;;;;;;;21.42;55.86;101508.50;4893282;28;120873;-77
2021/07/23 08:55:13;;;;;;;7.47;4.78;;;;;;;21.43;55.83;101507.97;4918524;28;120283;-78
2021/07/23 08:57:39;;;;;;;12.00;5.38;;;;;;;21.40;55.07;101513.81;4906591;28;120705;-78
2021/07/23 09:00:13;;;;;;;8.27;5.20;;;;;;;21.37;55.40;101515.59;4914033;28;119985;-79
2021/07/23 09:02:52;;;;;;;9.13;5.63;;;;;;;21.36;56.17;101518.91;4931533;28;120820;-80
2021/07/23 09:05:19;;;;;;;11.15;5.30;;;;;;;21.30;56.86;101499.34;4900486;28;119662;-82
2021/07/23 09:07:47;;;;;;;9.15;5.07;;;;;;;21.34;55.26;101508.25;4915592;28;119663;-78
2021/07/23 09:10:21;;;;;;;10.80;5.20;;;;;;;21.33;56.77;101509.50;4916819;28;119534;-78
2021/07/23 09:12:50;;;;;;;;;;;;;;;21.37;56.04;101517.63;4895700;28;126594;-81
2021/07/23 09:15:17;;;;;;;6.88;4.40;;;;;;;21.30;55.19;101515.34;4934193;28;120002;-81
2021/07/23 09:17:43;;;;;;;8.82;4.78;;;;;;;21.29;56.16;101514.56;4913569;28;121669;-81
2021/07/23 09:20:09;;;;;;;8.65;4.63;;;;;;;21.33;56.52;101519.91;4914640;28;120177;-80
2021/07/23 09:22:52;;;;;;;9.40;5.22;;;;;;;21.34;57.13;101516.63;4913393;28;121447;-78
2021/07/23 09:25:44;;;;;;;8.75;5.22;;;;;;;21.41;55.83;101520.94;4916530;28;122022;-78
2021/07/23 09:28:30;;;;;;;9.60;5.70;;;;;;;21.43;56.54;101519.16;4899870;28;120082;-82
2021/07/23 09:31:02;;;;;;;7.87;5.40;;;;;;;21.47;56.51;101513.31;4909644;28;121023;-78
2021/07/23 09:33:40;;;;;;;8.95;5.38;;;;;;;21.49;56.59;101505.19;4884659;28;120827;-82
2021/07/23 09:36:08;;;;;;;9.88;5.22;;;;;;;21.47;56.20;101507.72;4888169;28;119771;-80
2021/07/23 09:38:38;;;;;;;9.52;5.50;;;;;;;21.53;56.12;101505.72;4901728;28;120485;-82
2021/07/23 09:41:08;;;;;;;10.18;5.93;;;;;;;21.55;55.75;101517.13;4919360;28;119869;-81
2021/07/23 09:43:41;;;;;;;10.30;5.47;;;;;;;21.55;56.22;101508.00;4899665;28;120853;-81
2021/07/23 09:46:33;;;;;;;10.45;5.95;;;;;;;21.56;56.68;101512.31;4930666;28;121433;-80
2021/07/23 09:49:01;;;;;;;10.35;5.38;;;;;;;21.56;55.83;101513.06;4935918;28;119928;-78
2021/07/23 09:51:28;;;;;;;10.35;5.80;;;;;;;21.58;56.92;101509.78;4921160;28;119738;-78
2021/07/23 09:53:57;;;;;;;11.32;5.68;;;;;;;21.59;56.86;101509.25;4917449;28;121670;-78
2021/07/23 09:56:25;;;;;;;10.38;5.78;;;;;;;21.60;56.69;101515.63;4902202;28;122021;-78
2021/07/23 09:58:59;;;;;;;8.75;5.68;;;;;;;21.59;56.75;101508.50;4918903;28;120729;-81
2021/07/23 10:01:33;;;;;;;9.93;5.40;;;;;;;21.62;56.59;101507.50;4899404;28;121231;-80
2021/07/23 10:04:21;;;;;;;11.00;5.97;;;;;;;21.63;56.83;101504.19;4921593;28;120813;-80
2021/07/23 10:07:19;;;;;;;9.10;5.55;;;;;;;21.62;56.54;101508.25;4916415;28;120204;-80
2021/07/23 10:09:46;;;;;;;9.50;5.32;;;;;;;21.64;56.39;101502.16;4925081;28;120013;-81
2021/07/23 10:12:15;;;;;;;10.40;6.18;;;;;;;21.68;56.83;101502.66;4933278;28;120308;-78
2021/07/23 10:14:47;;;;;;;8.68;5.60;;;;;;;21.72;57.11;101500.38;4917955;28;121560;-78
2021/07/23 10:17:14;;;;;;;9.50;5.40;;;;;;;21.76;56.40;101495.28;4921126;28;121842;-81
2021/07/23 10:19:43;;;;;;;11.63;5.95;;;;;;;21.79;55.96;101504.69;4922620;28;119878;-79
2021/07/23 10:22:12;;;;;;;10.00;5.45;;;;;;;21.82;56.08;101507.22;4914763;28;120500;-83
2021/07/23 10:24:39;;;;;;;11.55;6.40;;;;;;;21.84;56.47;101510.28;4914001;28;120451;-80
2021/07/23 10:27:06;;;;;;;11.27;6.13;;;;;;;21.87;55.54;101506.47;4923831;28;120030;-83
2021/07/23 10:29:49;;;;;;;9.73;5.55;;;;;;;21.86;54.81;101504.94;4918869;28;121044;-80
2021/07/23 10:32:27;;;;;;;8.60;5.03;;;;;;;21.83;54.61;101500.38;4903695;28;120803;-81
2021/07/23 10:35:01;;;;;;;9.75;5.95;;;;;;;21.80;54.51;101503.44;4919358;28;121713;-80
2021/07/23 10:37:29;;;;;;;11.65;5.75;;;;;;;21.74;55.67;101498.59;4901174;28;119745;-80
2021/07/23 10:40:10;;;;;;;10.63;6.05;;;;;;;21.73;55.03;101501.88;4899331;28;121311;-81
2021/07/23 10:42:45;;;;;;;11.32;5.65;;;;;;;21.66;55.19;101496.81;4920107;28;120468;-80
2021/07/23 10:45:34;;;;;;;10.52;5.88;;;;;;;21.67;55.70;101498.34;4918196;28;120437;-79
2021/07/23 10:47:59;;;;;;;12.93;6.57;;;;;;;21.69;56.18;101495.81;4922450;28;119626;-79
2021/07/23 10:50:25;;;;;;;12.30;6.05;;;;;;;21.72;55.66;101503.16;4896532;28;120571;-78
2021/07/23 10:52:50;;;;;;;11.05;5.90;;;;;;;21.73;55.48;101496.31;4913308;28;120186;-80
2021/07/23 10:55:24;;;;;;;9.95;6.07;;;;;;;21.78;55.63;101498.34;4922037;28;121297;-80
2021/07/23 10:58:08;;;;;;;10.68;5.93;;;;;;;21.81;55.86;101496.56;4911506;28;121579;-83
2021/07/23 11:00:50;;;;;;;11.43;5.90;;;;;;;21.79;55.49;101494.28;4916240;28;120605;-80
2021/07/23 11:03:37;;;;;;;12.07;6.05;;;;;;;21.79;55.77;101497.06;4913629;28;120362;-81
2021/07/23 11:06:22;;;;;;;;;;;;;;;21.78;55.84;101497.59;4916106;28;120574;-78
2021/07/23 11:08:52;;;;;;;11.65;6.53;;;;;;;21.76;56.35;101489.69;4900220;28;120781;-79
2021/07/23 11:11:25;;;;;;;9.15;5.72;;;;;;;21.76;54.97;101496.03;4899371;28;122524;-80
2021/07/23 11:13:50;;;;;;;8.25;5.55;;;;;;;21.75;56.35;101494.53;4899380;28;121591;-78
2021/07/23 11:16:19;;;;;;;9.65;6.10;;;;;;;21.73;56.90;101485.88;4917587;28;120378;-78
2021/07/23 11:18:56;;;;;;;9.75;6.43;;;;;;;21.81;55.84;101491.75;4917237;28;120985;-79
2021/07/23 11:21:24;;;;;;;12.00;6.38;;;;;;;21.85;56.03;101492.25;4931379;28;119764;-79
2021/07/23 11:23:50;;;;;;;10.05;5.75;;;;;;;21.87;56.45;101494.53;4900529;28;121854;-78